sensor_id;sensor_type;location;lat;lon;timestamp;P1;durP1;ratioP1;P2;durP2;ratioP2
52530;SDS011;38441;52.894;6.040;2023-12-20T00:01:34;9.48;;;1.30;;
52530;SDS011;38441;52.894;6.040;2023-12-20T00:04:00;15.95;;;1.75;;
52530;SDS011;38441;52.894;6.040;2023-12-20T00:06:26;13.80;;;1.90;;
52530;SDS011;38441;52.894;6.040;2023-12-20T00:08:53;12.20;;;1.98;;
52530;SDS011;38441;52.894;6.040;2023-12-20T00:11:19;14.50;;;1.70;;
52530;SDS011;38441;52.894;6.040;2023-12-20T00:13:45;10.75;;;1.60;;
52530;SDS011;38441;52.894;6.040;2023-12-20T00:16:11;13.15;;;1.65;;
52530;SDS011;38441;52.894;6.040;2023-12-20T00:18:37;9.40;;;1.48;;
52530;SDS011;38441;52.894;6.040;2023-12-20T00:21:03;13.23;;;1.63;;
52530;SDS011;38441;52.894;6.040;2023-12-20T00:23:29;12.55;;;1.70;;
52530;SDS011;38441;52.894;6.040;2023-12-20T00:25:55;11.93;;;2.00;;
52530;SDS011;38441;52.894;6.040;2023-12-20T00:28:21;13.20;;;2.10;;
52530;SDS011;38441;52.894;6.040;2023-12-20T00:30:48;15.38;;;2.03;;
52530;SDS011;38441;52.894;6.040;2023-12-20T00:33:14;14.77;;;2.17;;
52530;SDS011;38441;52.894;6.040;2023-12-20T00:35:40;9.45;;;1.75;;
52530;SDS011;38441;52.894;6.040;2023-12-20T00:38:06;12.75;;;2.03;;
52530;SDS011;38441;52.894;6.040;2023-12-20T00:40:33;11.05;;;1.90;;
52530;SDS011;38441;52.894;6.040;2023-12-20T00:42:59;10.77;;;1.80;;
52530;SDS011;38441;52.894;6.040;2023-12-20T00:45:25;10.88;;;1.83;;
52530;SDS011;38441;52.894;6.040;2023-12-20T00:47:51;15.13;;;2.13;;
52530;SDS011;38441;52.894;6.040;2023-12-20T00:50:17;12.57;;;2.05;;
52530;SDS011;38441;52.894;6.040;2023-12-20T00:52:44;15.48;;;2.13;;
52530;SDS011;38441;52.894;6.040;2023-12-20T00:55:10;13.25;;;2.55;;
52530;SDS011;38441;52.894;6.040;2023-12-20T00:57:35;9.13;;;1.20;;
52530;SDS011;38441;52.894;6.040;2023-12-20T01:00:02;13.00;;;2.28;;
52530;SDS011;38441;52.894;6.040;2023-12-20T01:02:28;11.82;;;1.70;;
52530;SDS011;38441;52.894;6.040;2023-12-20T01:04:54;9.98;;;1.80;;
52530;SDS011;38441;52.894;6.040;2023-12-20T01:07:20;9.00;;;1.65;;
52530;SDS011;38441;52.894;6.040;2023-12-20T01:09:46;15.38;;;2.13;;
52530;SDS011;38441;52.894;6.040;2023-12-20T01:12:12;10.75;;;2.22;;
52530;SDS011;38441;52.894;6.040;2023-12-20T01:14:38;12.52;;;1.55;;
52530;SDS011;38441;52.894;6.040;2023-12-20T01:17:04;15.98;;;2.45;;
52530;SDS011;38441;52.894;6.040;2023-12-20T01:19:30;12.55;;;1.90;;
52530;SDS011;38441;52.894;6.040;2023-12-20T01:21:57;15.85;;;2.03;;
52530;SDS011;38441;52.894;6.040;2023-12-20T01:24:23;13.88;;;2.10;;
52530;SDS011;38441;52.894;6.040;2023-12-20T01:26:49;15.40;;;2.25;;
52530;SDS011;38441;52.894;6.040;2023-12-20T01:29:15;9.43;;;1.63;;
52530;SDS011;38441;52.894;6.040;2023-12-20T01:31:41;17.13;;;1.67;;
52530;SDS011;38441;52.894;6.040;2023-12-20T01:34:07;11.70;;;2.28;;
52530;SDS011;38441;52.894;6.040;2023-12-20T01:36:33;17.08;;;2.70;;
52530;SDS011;38441;52.894;6.040;2023-12-20T01:38:59;14.40;;;2.45;;
52530;SDS011;38441;52.894;6.040;2023-12-20T01:41:25;10.30;;;1.33;;
52530;SDS011;38441;52.894;6.040;2023-12-20T01:43:51;13.90;;;2.08;;
52530;SDS011;38441;52.894;6.040;2023-12-20T01:46:18;18.40;;;2.70;;
52530;SDS011;38441;52.894;6.040;2023-12-20T01:48:44;12.45;;;2.05;;
52530;SDS011;38441;52.894;6.040;2023-12-20T01:51:10;14.68;;;2.20;;
52530;SDS011;38441;52.894;6.040;2023-12-20T01:53:36;16.60;;;2.08;;
52530;SDS011;38441;52.894;6.040;2023-12-20T01:56:03;14.25;;;1.75;;
52530;SDS011;38441;52.894;6.040;2023-12-20T01:58:30;13.30;;;2.22;;
52530;SDS011;38441;52.894;6.040;2023-12-20T02:00:56;13.98;;;2.08;;
52530;SDS011;38441;52.894;6.040;2023-12-20T02:03:23;18.38;;;2.65;;
52530;SDS011;38441;52.894;6.040;2023-12-20T02:05:49;14.70;;;2.40;;
52530;SDS011;38441;52.894;6.040;2023-12-20T02:08:15;11.00;;;1.90;;
52530;SDS011;38441;52.894;6.040;2023-12-20T02:10:41;17.67;;;1.83;;
52530;SDS011;38441;52.894;6.040;2023-12-20T02:13:08;16.83;;;2.53;;
52530;SDS011;38441;52.894;6.040;2023-12-20T02:15:34;17.92;;;2.42;;
52530;SDS011;38441;52.894;6.040;2023-12-20T02:18:02;14.82;;;2.60;;
52530;SDS011;38441;52.894;6.040;2023-12-20T02:20:28;15.63;;;3.33;;
52530;SDS011;38441;52.894;6.040;2023-12-20T02:22:54;16.17;;;2.30;;
52530;SDS011;38441;52.894;6.040;2023-12-20T02:25:20;20.17;;;2.67;;
52530;SDS011;38441;52.894;6.040;2023-12-20T02:27:46;18.75;;;2.65;;
52530;SDS011;38441;52.894;6.040;2023-12-20T02:30:13;14.90;;;3.00;;
52530;SDS011;38441;52.894;6.040;2023-12-20T02:32:39;20.10;;;3.30;;
52530;SDS011;38441;52.894;6.040;2023-12-20T02:35:05;15.60;;;2.28;;
52530;SDS011;38441;52.894;6.040;2023-12-20T02:37:32;19.08;;;2.85;;
52530;SDS011;38441;52.894;6.040;2023-12-20T02:39:58;17.15;;;2.95;;
52530;SDS011;38441;52.894;6.040;2023-12-20T02:42:24;26.38;;;3.25;;
52530;SDS011;38441;52.894;6.040;2023-12-20T02:44:50;23.23;;;2.67;;
52530;SDS011;38441;52.894;6.040;2023-12-20T02:47:16;21.58;;;2.75;;
52530;SDS011;38441;52.894;6.040;2023-12-20T02:49:42;18.58;;;3.30;;
52530;SDS011;38441;52.894;6.040;2023-12-20T02:52:08;23.63;;;3.53;;
52530;SDS011;38441;52.894;6.040;2023-12-20T02:54:34;17.10;;;3.20;;
52530;SDS011;38441;52.894;6.040;2023-12-20T02:57:00;23.10;;;3.00;;
52530;SDS011;38441;52.894;6.040;2023-12-20T02:59:26;15.52;;;3.17;;
52530;SDS011;38441;52.894;6.040;2023-12-20T03:01:53;26.45;;;3.30;;
52530;SDS011;38441;52.894;6.040;2023-12-20T03:04:19;21.17;;;3.22;;
52530;SDS011;38441;52.894;6.040;2023-12-20T03:06:45;17.05;;;3.25;;
52530;SDS011;38441;52.894;6.040;2023-12-20T03:09:11;17.65;;;2.85;;
52530;SDS011;38441;52.894;6.040;2023-12-20T03:11:37;19.23;;;2.63;;
52530;SDS011;38441;52.894;6.040;2023-12-20T03:14:03;21.00;;;2.97;;
52530;SDS011;38441;52.894;6.040;2023-12-20T03:16:29;21.52;;;3.03;;
52530;SDS011;38441;52.894;6.040;2023-12-20T03:18:56;22.50;;;2.47;;
52530;SDS011;38441;52.894;6.040;2023-12-20T03:21:22;24.38;;;3.10;;
52530;SDS011;38441;52.894;6.040;2023-12-20T03:23:48;20.20;;;3.13;;
52530;SDS011;38441;52.894;6.040;2023-12-20T03:26:14;17.55;;;2.85;;
52530;SDS011;38441;52.894;6.040;2023-12-20T03:28:40;16.05;;;2.83;;
52530;SDS011;38441;52.894;6.040;2023-12-20T03:31:06;21.48;;;3.08;;
52530;SDS011;38441;52.894;6.040;2023-12-20T03:33:32;15.25;;;2.40;;
52530;SDS011;38441;52.894;6.040;2023-12-20T03:35:58;15.40;;;2.58;;
52530;SDS011;38441;52.894;6.040;2023-12-20T03:38:24;23.15;;;3.13;;
52530;SDS011;38441;52.894;6.040;2023-12-20T03:40:50;19.73;;;3.30;;
52530;SDS011;38441;52.894;6.040;2023-12-20T03:43:16;23.42;;;2.88;;
52530;SDS011;38441;52.894;6.040;2023-12-20T03:45:42;18.02;;;2.65;;
52530;SDS011;38441;52.894;6.040;2023-12-20T03:48:09;20.65;;;3.13;;
52530;SDS011;38441;52.894;6.040;2023-12-20T03:50:35;14.85;;;2.53;;
52530;SDS011;38441;52.894;6.040;2023-12-20T03:53:01;19.77;;;2.95;;
52530;SDS011;38441;52.894;6.040;2023-12-20T03:55:28;24.48;;;3.25;;
52530;SDS011;38441;52.894;6.040;2023-12-20T03:57:55;18.63;;;3.22;;
52530;SDS011;38441;52.894;6.040;2023-12-20T04:00:21;16.88;;;2.50;;
52530;SDS011;38441;52.894;6.040;2023-12-20T04:02:47;16.13;;;3.22;;
52530;SDS011;38441;52.894;6.040;2023-12-20T04:05:13;19.60;;;3.05;;
52530;SDS011;38441;52.894;6.040;2023-12-20T04:07:39;19.27;;;3.30;;
52530;SDS011;38441;52.894;6.040;2023-12-20T04:10:05;20.60;;;3.03;;
52530;SDS011;38441;52.894;6.040;2023-12-20T04:12:32;13.30;;;2.67;;
52530;SDS011;38441;52.894;6.040;2023-12-20T04:14:58;17.63;;;2.65;;
52530;SDS011;38441;52.894;6.040;2023-12-20T04:17:24;22.00;;;3.15;;
52530;SDS011;38441;52.894;6.040;2023-12-20T04:19:51;23.40;;;3.95;;
52530;SDS011;38441;52.894;6.040;2023-12-20T04:22:17;20.13;;;3.00;;
52530;SDS011;38441;52.894;6.040;2023-12-20T04:24:43;16.58;;;3.33;;
52530;SDS011;38441;52.894;6.040;2023-12-20T04:27:10;22.02;;;3.42;;
52530;SDS011;38441;52.894;6.040;2023-12-20T04:29:36;23.20;;;3.03;;
52530;SDS011;38441;52.894;6.040;2023-12-20T04:32:02;24.00;;;3.13;;
52530;SDS011;38441;52.894;6.040;2023-12-20T04:34:29;25.60;;;3.88;;
52530;SDS011;38441;52.894;6.040;2023-12-20T04:36:55;20.88;;;3.80;;
52530;SDS011;38441;52.894;6.040;2023-12-20T04:39:21;21.52;;;3.05;;
52530;SDS011;38441;52.894;6.040;2023-12-20T04:41:47;14.15;;;2.47;;
52530;SDS011;38441;52.894;6.040;2023-12-20T04:44:13;23.17;;;3.25;;
52530;SDS011;38441;52.894;6.040;2023-12-20T04:46:39;17.27;;;3.38;;
52530;SDS011;38441;52.894;6.040;2023-12-20T04:49:05;20.48;;;3.67;;
52530;SDS011;38441;52.894;6.040;2023-12-20T04:51:34;17.67;;;3.28;;
52530;SDS011;38441;52.894;6.040;2023-12-20T04:54:01;19.88;;;3.17;;
52530;SDS011;38441;52.894;6.040;2023-12-20T04:56:27;21.77;;;2.95;;
52530;SDS011;38441;52.894;6.040;2023-12-20T04:58:53;18.52;;;3.45;;
52530;SDS011;38441;52.894;6.040;2023-12-20T05:01:19;18.75;;;4.32;;
52530;SDS011;38441;52.894;6.040;2023-12-20T05:03:46;19.05;;;3.28;;
52530;SDS011;38441;52.894;6.040;2023-12-20T05:06:12;19.33;;;3.42;;
52530;SDS011;38441;52.894;6.040;2023-12-20T05:08:39;13.45;;;3.22;;
52530;SDS011;38441;52.894;6.040;2023-12-20T05:11:06;15.70;;;3.03;;
52530;SDS011;38441;52.894;6.040;2023-12-20T05:13:32;17.60;;;3.60;;
52530;SDS011;38441;52.894;6.040;2023-12-20T05:15:58;19.42;;;3.10;;
52530;SDS011;38441;52.894;6.040;2023-12-20T05:18:24;18.02;;;3.30;;
52530;SDS011;38441;52.894;6.040;2023-12-20T05:20:50;15.38;;;2.97;;
52530;SDS011;38441;52.894;6.040;2023-12-20T05:23:18;18.85;;;3.53;;
52530;SDS011;38441;52.894;6.040;2023-12-20T05:25:45;17.30;;;4.00;;
52530;SDS011;38441;52.894;6.040;2023-12-20T05:28:11;25.38;;;3.38;;
52530;SDS011;38441;52.894;6.040;2023-12-20T05:30:37;23.73;;;2.90;;
52530;SDS011;38441;52.894;6.040;2023-12-20T05:33:03;18.05;;;3.40;;
52530;SDS011;38441;52.894;6.040;2023-12-20T05:35:29;17.35;;;2.95;;
52530;SDS011;38441;52.894;6.040;2023-12-20T05:37:55;16.13;;;2.67;;
52530;SDS011;38441;52.894;6.040;2023-12-20T05:40:21;18.08;;;2.63;;
52530;SDS011;38441;52.894;6.040;2023-12-20T05:42:47;19.23;;;2.85;;
52530;SDS011;38441;52.894;6.040;2023-12-20T05:45:14;15.93;;;3.25;;
52530;SDS011;38441;52.894;6.040;2023-12-20T05:47:40;16.40;;;3.53;;
52530;SDS011;38441;52.894;6.040;2023-12-20T05:50:06;21.00;;;3.63;;
52530;SDS011;38441;52.894;6.040;2023-12-20T05:52:32;14.90;;;2.97;;
52530;SDS011;38441;52.894;6.040;2023-12-20T05:54:59;13.35;;;3.10;;
52530;SDS011;38441;52.894;6.040;2023-12-20T05:57:26;20.80;;;3.10;;
52530;SDS011;38441;52.894;6.040;2023-12-20T05:59:52;21.08;;;3.08;;
52530;SDS011;38441;52.894;6.040;2023-12-20T06:02:18;20.73;;;2.70;;
52530;SDS011;38441;52.894;6.040;2023-12-20T06:04:44;23.55;;;3.70;;
52530;SDS011;38441;52.894;6.040;2023-12-20T06:07:11;14.52;;;3.10;;
52530;SDS011;38441;52.894;6.040;2023-12-20T06:09:37;23.50;;;3.70;;
52530;SDS011;38441;52.894;6.040;2023-12-20T06:12:04;15.80;;;2.92;;
52530;SDS011;38441;52.894;6.040;2023-12-20T06:14:30;22.90;;;3.17;;
52530;SDS011;38441;52.894;6.040;2023-12-20T06:16:56;20.23;;;3.92;;
52530;SDS011;38441;52.894;6.040;2023-12-20T06:19:22;20.00;;;3.15;;
52530;SDS011;38441;52.894;6.040;2023-12-20T06:21:48;18.63;;;2.67;;
52530;SDS011;38441;52.894;6.040;2023-12-20T06:24:13;14.50;;;3.25;;
52530;SDS011;38441;52.894;6.040;2023-12-20T06:26:39;14.35;;;3.20;;
52530;SDS011;38441;52.894;6.040;2023-12-20T06:29:05;17.17;;;2.58;;
52530;SDS011;38441;52.894;6.040;2023-12-20T06:31:30;15.57;;;3.17;;
52530;SDS011;38441;52.894;6.040;2023-12-20T06:33:58;14.73;;;3.25;;
52530;SDS011;38441;52.894;6.040;2023-12-20T06:36:25;20.50;;;3.10;;
52530;SDS011;38441;52.894;6.040;2023-12-20T06:38:51;17.33;;;3.05;;
52530;SDS011;38441;52.894;6.040;2023-12-20T06:41:16;14.85;;;2.50;;
52530;SDS011;38441;52.894;6.040;2023-12-20T06:43:42;19.60;;;3.17;;
52530;SDS011;38441;52.894;6.040;2023-12-20T06:46:08;16.17;;;3.13;;
52530;SDS011;38441;52.894;6.040;2023-12-20T06:48:35;19.67;;;2.55;;
52530;SDS011;38441;52.894;6.040;2023-12-20T06:51:01;17.60;;;3.10;;
52530;SDS011;38441;52.894;6.040;2023-12-20T06:53:27;17.45;;;2.85;;
52530;SDS011;38441;52.894;6.040;2023-12-20T06:55:53;19.80;;;3.35;;
52530;SDS011;38441;52.894;6.040;2023-12-20T06:58:21;22.10;;;4.18;;
52530;SDS011;38441;52.894;6.040;2023-12-20T07:00:47;24.70;;;3.55;;
52530;SDS011;38441;52.894;6.040;2023-12-20T07:03:13;19.55;;;3.22;;
52530;SDS011;38441;52.894;6.040;2023-12-20T07:05:39;21.10;;;3.83;;
52530;SDS011;38441;52.894;6.040;2023-12-20T07:08:06;23.48;;;4.18;;
52530;SDS011;38441;52.894;6.040;2023-12-20T07:10:32;18.40;;;2.85;;
52530;SDS011;38441;52.894;6.040;2023-12-20T07:12:58;24.88;;;3.95;;
52530;SDS011;38441;52.894;6.040;2023-12-20T07:15:24;23.65;;;3.45;;
52530;SDS011;38441;52.894;6.040;2023-12-20T07:17:51;21.98;;;3.33;;
52530;SDS011;38441;52.894;6.040;2023-12-20T07:20:17;28.48;;;4.32;;
52530;SDS011;38441;52.894;6.040;2023-12-20T07:22:43;19.55;;;3.13;;
52530;SDS011;38441;52.894;6.040;2023-12-20T07:25:10;22.48;;;3.42;;
52530;SDS011;38441;52.894;6.040;2023-12-20T07:27:36;17.92;;;3.28;;
52530;SDS011;38441;52.894;6.040;2023-12-20T07:30:02;22.45;;;3.92;;
52530;SDS011;38441;52.894;6.040;2023-12-20T07:32:28;20.33;;;3.75;;
52530;SDS011;38441;52.894;6.040;2023-12-20T07:34:54;21.35;;;3.08;;
52530;SDS011;38441;52.894;6.040;2023-12-20T07:37:20;16.27;;;3.67;;
52530;SDS011;38441;52.894;6.040;2023-12-20T07:39:46;19.95;;;3.60;;
52530;SDS011;38441;52.894;6.040;2023-12-20T07:42:12;22.23;;;3.38;;
52530;SDS011;38441;52.894;6.040;2023-12-20T07:44:38;20.08;;;3.97;;
52530;SDS011;38441;52.894;6.040;2023-12-20T07:47:05;20.60;;;3.58;;
52530;SDS011;38441;52.894;6.040;2023-12-20T07:49:31;15.27;;;3.15;;
52530;SDS011;38441;52.894;6.040;2023-12-20T07:51:57;18.42;;;3.70;;
52530;SDS011;38441;52.894;6.040;2023-12-20T07:54:23;22.98;;;3.88;;
52530;SDS011;38441;52.894;6.040;2023-12-20T07:56:49;19.52;;;3.63;;
52530;SDS011;38441;52.894;6.040;2023-12-20T07:59:15;20.00;;;3.42;;
52530;SDS011;38441;52.894;6.040;2023-12-20T08:01:41;19.45;;;3.33;;
52530;SDS011;38441;52.894;6.040;2023-12-20T08:04:07;18.63;;;3.63;;
52530;SDS011;38441;52.894;6.040;2023-12-20T08:06:34;18.10;;;3.25;;
52530;SDS011;38441;52.894;6.040;2023-12-20T08:09:00;15.35;;;2.58;;
52530;SDS011;38441;52.894;6.040;2023-12-20T08:11:26;19.52;;;3.28;;
52530;SDS011;38441;52.894;6.040;2023-12-20T08:13:52;20.50;;;3.53;;
52530;SDS011;38441;52.894;6.040;2023-12-20T08:16:19;15.18;;;2.65;;
52530;SDS011;38441;52.894;6.040;2023-12-20T08:18:45;23.02;;;3.67;;
52530;SDS011;38441;52.894;6.040;2023-12-20T08:21:11;29.90;;;4.32;;
52530;SDS011;38441;52.894;6.040;2023-12-20T08:23:37;16.15;;;3.33;;
52530;SDS011;38441;52.894;6.040;2023-12-20T08:26:04;19.70;;;3.85;;
52530;SDS011;38441;52.894;6.040;2023-12-20T08:28:30;13.88;;;3.67;;
52530;SDS011;38441;52.894;6.040;2023-12-20T08:30:56;21.17;;;3.17;;
52530;SDS011;38441;52.894;6.040;2023-12-20T08:33:22;16.08;;;3.00;;
52530;SDS011;38441;52.894;6.040;2023-12-20T08:35:48;14.82;;;3.25;;
52530;SDS011;38441;52.894;6.040;2023-12-20T08:38:14;18.17;;;3.55;;
52530;SDS011;38441;52.894;6.040;2023-12-20T08:40:41;20.75;;;3.75;;
52530;SDS011;38441;52.894;6.040;2023-12-20T08:43:10;18.73;;;3.13;;
52530;SDS011;38441;52.894;6.040;2023-12-20T08:45:37;22.30;;;3.92;;
52530;SDS011;38441;52.894;6.040;2023-12-20T08:48:04;17.92;;;3.45;;
52530;SDS011;38441;52.894;6.040;2023-12-20T08:50:30;22.50;;;3.63;;
52530;SDS011;38441;52.894;6.040;2023-12-20T08:52:56;18.38;;;2.83;;
52530;SDS011;38441;52.894;6.040;2023-12-20T08:55:22;26.10;;;3.30;;
52530;SDS011;38441;52.894;6.040;2023-12-20T08:57:48;24.05;;;4.03;;
52530;SDS011;38441;52.894;6.040;2023-12-20T09:00:15;20.00;;;3.83;;
52530;SDS011;38441;52.894;6.040;2023-12-20T09:02:41;19.00;;;3.38;;
52530;SDS011;38441;52.894;6.040;2023-12-20T09:05:08;19.13;;;3.17;;
52530;SDS011;38441;52.894;6.040;2023-12-20T09:07:34;16.95;;;2.88;;
52530;SDS011;38441;52.894;6.040;2023-12-20T09:10:00;16.92;;;2.88;;
52530;SDS011;38441;52.894;6.040;2023-12-20T09:12:26;20.13;;;3.20;;
52530;SDS011;38441;52.894;6.040;2023-12-20T09:14:52;22.70;;;2.90;;
52530;SDS011;38441;52.894;6.040;2023-12-20T09:17:19;15.02;;;2.45;;
52530;SDS011;38441;52.894;6.040;2023-12-20T09:19:47;21.83;;;3.08;;
52530;SDS011;38441;52.894;6.040;2023-12-20T09:22:13;22.80;;;4.30;;
52530;SDS011;38441;52.894;6.040;2023-12-20T09:24:39;18.15;;;3.42;;
52530;SDS011;38441;52.894;6.040;2023-12-20T09:27:06;20.63;;;3.65;;
52530;SDS011;38441;52.894;6.040;2023-12-20T09:29:32;16.90;;;3.80;;
52530;SDS011;38441;52.894;6.040;2023-12-20T09:31:58;20.52;;;3.75;;
52530;SDS011;38441;52.894;6.040;2023-12-20T09:34:24;20.15;;;3.20;;
52530;SDS011;38441;52.894;6.040;2023-12-20T09:36:51;13.98;;;2.22;;
52530;SDS011;38441;52.894;6.040;2023-12-20T09:39:17;10.25;;;1.75;;
52530;SDS011;38441;52.894;6.040;2023-12-20T09:42:05;6.85;;;1.33;;
52530;SDS011;38441;52.894;6.040;2023-12-20T09:44:32;5.47;;;0.90;;
52530;SDS011;38441;52.894;6.040;2023-12-20T09:46:59;9.48;;;1.13;;
52530;SDS011;38441;52.894;6.040;2023-12-20T09:49:27;9.40;;;1.48;;
52530;SDS011;38441;52.894;6.040;2023-12-20T09:51:54;11.82;;;1.80;;
52530;SDS011;38441;52.894;6.040;2023-12-20T09:54:21;11.10;;;1.63;;
52530;SDS011;38441;52.894;6.040;2023-12-20T09:56:47;6.53;;;1.20;;
52530;SDS011;38441;52.894;6.040;2023-12-20T09:59:13;8.32;;;1.30;;
52530;SDS011;38441;52.894;6.040;2023-12-20T10:01:40;8.00;;;1.30;;
52530;SDS011;38441;52.894;6.040;2023-12-20T10:04:06;6.50;;;0.88;;
52530;SDS011;38441;52.894;6.040;2023-12-20T10:06:37;12.10;;;1.70;;
52530;SDS011;38441;52.894;6.040;2023-12-20T10:09:03;10.05;;;1.15;;
52530;SDS011;38441;52.894;6.040;2023-12-20T10:11:29;8.38;;;1.08;;
52530;SDS011;38441;52.894;6.040;2023-12-20T10:14:01;9.45;;;1.33;;
52530;SDS011;38441;52.894;6.040;2023-12-20T10:16:27;8.15;;;1.00;;
52530;SDS011;38441;52.894;6.040;2023-12-20T10:18:54;11.52;;;1.30;;
52530;SDS011;38441;52.894;6.040;2023-12-20T10:21:20;7.35;;;0.93;;
52530;SDS011;38441;52.894;6.040;2023-12-20T10:23:47;8.85;;;0.85;;
52530;SDS011;38441;52.894;6.040;2023-12-20T10:28:50;10.52;;;1.58;;
52530;SDS011;38441;52.894;6.040;2023-12-20T10:31:30;11.45;;;1.30;;
52530;SDS011;38441;52.894;6.040;2023-12-20T10:33:57;14.52;;;2.03;;
52530;SDS011;38441;52.894;6.040;2023-12-20T10:36:24;7.28;;;0.95;;
52530;SDS011;38441;52.894;6.040;2023-12-20T10:38:52;8.63;;;1.05;;
52530;SDS011;38441;52.894;6.040;2023-12-20T10:41:24;9.45;;;1.02;;
52530;SDS011;38441;52.894;6.040;2023-12-20T10:44:03;6.32;;;0.70;;
52530;SDS011;38441;52.894;6.040;2023-12-20T10:46:30;10.35;;;1.00;;
52530;SDS011;38441;52.894;6.040;2023-12-20T10:48:57;8.95;;;1.27;;
52530;SDS011;38441;52.894;6.040;2023-12-20T10:51:24;8.57;;;0.90;;
52530;SDS011;38441;52.894;6.040;2023-12-20T10:53:55;9.18;;;1.27;;
52530;SDS011;38441;52.894;6.040;2023-12-20T10:56:22;8.57;;;1.17;;
52530;SDS011;38441;52.894;6.040;2023-12-20T10:58:51;7.25;;;1.45;;
52530;SDS011;38441;52.894;6.040;2023-12-20T11:01:17;5.97;;;1.38;;
52530;SDS011;38441;52.894;6.040;2023-12-20T11:06:22;11.10;;;1.33;;
52530;SDS011;38441;52.894;6.040;2023-12-20T11:08:51;9.13;;;1.42;;
52530;SDS011;38441;52.894;6.040;2023-12-20T11:11:21;11.93;;;1.60;;
52530;SDS011;38441;52.894;6.040;2023-12-20T11:14:11;7.75;;;2.03;;
52530;SDS011;38441;52.894;6.040;2023-12-20T11:16:38;10.35;;;1.77;;
52530;SDS011;38441;52.894;6.040;2023-12-20T11:19:05;7.72;;;0.98;;
52530;SDS011;38441;52.894;6.040;2023-12-20T11:21:31;8.25;;;1.02;;
52530;SDS011;38441;52.894;6.040;2023-12-20T11:23:57;9.52;;;1.35;;
52530;SDS011;38441;52.894;6.040;2023-12-20T11:26:26;12.93;;;2.47;;
52530;SDS011;38441;52.894;6.040;2023-12-20T11:31:40;10.00;;;1.52;;
52530;SDS011;38441;52.894;6.040;2023-12-20T11:34:13;8.90;;;1.58;;
52530;SDS011;38441;52.894;6.040;2023-12-20T11:36:42;8.57;;;1.92;;
52530;SDS011;38441;52.894;6.040;2023-12-20T11:39:08;9.48;;;1.70;;
52530;SDS011;38441;52.894;6.040;2023-12-20T11:41:36;7.50;;;1.20;;
52530;SDS011;38441;52.894;6.040;2023-12-20T11:44:02;10.00;;;1.63;;
52530;SDS011;38441;52.894;6.040;2023-12-20T11:46:31;11.35;;;1.27;;
52530;SDS011;38441;52.894;6.040;2023-12-20T11:48:59;13.32;;;1.20;;
52530;SDS011;38441;52.894;6.040;2023-12-20T11:51:26;8.20;;;1.25;;
52530;SDS011;38441;52.894;6.040;2023-12-20T11:53:52;12.18;;;1.10;;
52530;SDS011;38441;52.894;6.040;2023-12-20T11:56:18;9.35;;;1.33;;
52530;SDS011;38441;52.894;6.040;2023-12-20T11:58:44;9.93;;;1.42;;
52530;SDS011;38441;52.894;6.040;2023-12-20T12:01:10;5.53;;;1.38;;
52530;SDS011;38441;52.894;6.040;2023-12-20T12:03:36;8.52;;;1.88;;
52530;SDS011;38441;52.894;6.040;2023-12-20T12:06:02;7.28;;;1.52;;
52530;SDS011;38441;52.894;6.040;2023-12-20T12:08:29;12.05;;;1.45;;
52530;SDS011;38441;52.894;6.040;2023-12-20T12:10:55;4.70;;;1.00;;
52530;SDS011;38441;52.894;6.040;2023-12-20T12:13:21;11.18;;;1.70;;
52530;SDS011;38441;52.894;6.040;2023-12-20T12:15:48;9.57;;;1.52;;
52530;SDS011;38441;52.894;6.040;2023-12-20T12:18:15;9.70;;;1.20;;
52530;SDS011;38441;52.894;6.040;2023-12-20T12:20:42;7.78;;;1.02;;
52530;SDS011;38441;52.894;6.040;2023-12-20T12:23:08;7.03;;;1.00;;
52530;SDS011;38441;52.894;6.040;2023-12-20T12:25:37;9.90;;;1.23;;
52530;SDS011;38441;52.894;6.040;2023-12-20T12:28:03;10.27;;;1.65;;
52530;SDS011;38441;52.894;6.040;2023-12-20T12:30:29;9.80;;;1.10;;
52530;SDS011;38441;52.894;6.040;2023-12-20T12:32:55;10.57;;;1.40;;
52530;SDS011;38441;52.894;6.040;2023-12-20T12:35:22;10.65;;;1.20;;
52530;SDS011;38441;52.894;6.040;2023-12-20T12:37:48;6.88;;;0.93;;
52530;SDS011;38441;52.894;6.040;2023-12-20T12:40:15;10.93;;;1.67;;
52530;SDS011;38441;52.894;6.040;2023-12-20T12:42:42;11.55;;;1.67;;
52530;SDS011;38441;52.894;6.040;2023-12-20T12:45:09;10.52;;;1.55;;
52530;SDS011;38441;52.894;6.040;2023-12-20T12:47:36;6.15;;;0.88;;
52530;SDS011;38441;52.894;6.040;2023-12-20T12:50:03;8.88;;;1.00;;
52530;SDS011;38441;52.894;6.040;2023-12-20T12:52:30;6.82;;;0.82;;
52530;SDS011;38441;52.894;6.040;2023-12-20T12:54:56;6.28;;;0.80;;
52530;SDS011;38441;52.894;6.040;2023-12-20T12:57:22;7.07;;;0.75;;
52530;SDS011;38441;52.894;6.040;2023-12-20T12:59:49;11.07;;;1.35;;
52530;SDS011;38441;52.894;6.040;2023-12-20T13:02:15;6.28;;;0.98;;
52530;SDS011;38441;52.894;6.040;2023-12-20T13:04:41;7.43;;;1.30;;
52530;SDS011;38441;52.894;6.040;2023-12-20T13:07:08;5.55;;;1.05;;
52530;SDS011;38441;52.894;6.040;2023-12-20T13:09:37;7.07;;;1.13;;
52530;SDS011;38441;52.894;6.040;2023-12-20T13:12:04;6.25;;;1.08;;
52530;SDS011;38441;52.894;6.040;2023-12-20T13:14:33;6.97;;;1.00;;
52530;SDS011;38441;52.894;6.040;2023-12-20T13:16:59;4.50;;;0.75;;
52530;SDS011;38441;52.894;6.040;2023-12-20T13:19:25;5.28;;;0.85;;
52530;SDS011;38441;52.894;6.040;2023-12-20T13:21:52;7.70;;;1.13;;
52530;SDS011;38441;52.894;6.040;2023-12-20T13:24:19;9.32;;;0.88;;
52530;SDS011;38441;52.894;6.040;2023-12-20T13:26:45;7.63;;;0.98;;
52530;SDS011;38441;52.894;6.040;2023-12-20T13:29:12;8.50;;;1.20;;
52530;SDS011;38441;52.894;6.040;2023-12-20T13:31:38;5.22;;;1.10;;
52530;SDS011;38441;52.894;6.040;2023-12-20T13:34:05;6.35;;;0.80;;
52530;SDS011;38441;52.894;6.040;2023-12-20T13:36:31;4.07;;;1.27;;
52530;SDS011;38441;52.894;6.040;2023-12-20T13:38:57;6.60;;;1.05;;
52530;SDS011;38441;52.894;6.040;2023-12-20T13:41:23;6.70;;;0.88;;
52530;SDS011;38441;52.894;6.040;2023-12-20T13:43:49;4.45;;;0.90;;
52530;SDS011;38441;52.894;6.040;2023-12-20T13:46:15;5.00;;;0.80;;
52530;SDS011;38441;52.894;6.040;2023-12-20T13:48:42;5.72;;;0.82;;
52530;SDS011;38441;52.894;6.040;2023-12-20T13:51:08;4.90;;;0.80;;
52530;SDS011;38441;52.894;6.040;2023-12-20T13:53:34;7.13;;;1.00;;
52530;SDS011;38441;52.894;6.040;2023-12-20T13:56:00;6.35;;;1.20;;
52530;SDS011;38441;52.894;6.040;2023-12-20T13:58:26;5.63;;;0.82;;
52530;SDS011;38441;52.894;6.040;2023-12-20T14:00:52;8.25;;;1.55;;
52530;SDS011;38441;52.894;6.040;2023-12-20T14:03:24;3.42;;;0.85;;
52530;SDS011;38441;52.894;6.040;2023-12-20T14:05:50;7.13;;;0.90;;
52530;SDS011;38441;52.894;6.040;2023-12-20T14:08:16;8.50;;;1.40;;
52530;SDS011;38441;52.894;6.040;2023-12-20T14:10:42;8.43;;;1.25;;
52530;SDS011;38441;52.894;6.040;2023-12-20T14:13:08;7.75;;;0.93;;
52530;SDS011;38441;52.894;6.040;2023-12-20T14:15:34;8.93;;;1.58;;
52530;SDS011;38441;52.894;6.040;2023-12-20T14:18:05;5.07;;;1.10;;
52530;SDS011;38441;52.894;6.040;2023-12-20T14:20:35;3.50;;;0.68;;
52530;SDS011;38441;52.894;6.040;2023-12-20T14:23:01;7.05;;;1.20;;
52530;SDS011;38441;52.894;6.040;2023-12-20T14:25:27;5.75;;;1.13;;
52530;SDS011;38441;52.894;6.040;2023-12-20T14:27:53;10.02;;;1.35;;
52530;SDS011;38441;52.894;6.040;2023-12-20T14:30:20;7.80;;;1.27;;
52530;SDS011;38441;52.894;6.040;2023-12-20T14:32:46;12.85;;;1.55;;
52530;SDS011;38441;52.894;6.040;2023-12-20T14:35:13;12.90;;;2.42;;
52530;SDS011;38441;52.894;6.040;2023-12-20T14:37:39;11.32;;;2.67;;
52530;SDS011;38441;52.894;6.040;2023-12-20T14:40:06;15.10;;;2.03;;
52530;SDS011;38441;52.894;6.040;2023-12-20T14:42:35;12.15;;;2.47;;